Time;durP1;ratioP1;P1;durP2;ratioP2;P2;SDS_P1;SDS_P2;PMS_P1;PMS_P2;Temp;Humidity;BMP_temperature;BMP_pressure;BME280_temperature;BME280_humidity;BME280_pressure;Samples;Min_cycle;Max_cycle;Signal;HPM_P1;HPM_P2
2022/08/27 00:01:51;;;;;;;8.63;3.25;;;18.70;99.90;;;;;;5034792;28;20124;-63
2022/08/27 00:04:17;;;;;;;9.35;3.33;;;18.70;99.90;;;;;;5031346;28;20042;-63
2022/08/27 00:06:42;;;;;;;10.85;3.40;;;18.60;99.90;;;;;;5033835;28;20049;-63
2022/08/27 00:09:08;;;;;;;8.80;3.65;;;18.60;99.90;;;;;;5033330;28;20040;-63
2022/08/27 00:11:34;;;;;;;6.00;3.13;;;18.50;99.90;;;;;;5034022;28;20434;-63
2022/08/27 00:14:00;;;;;;;7.40;3.78;;;18.40;99.90;;;;;;5034475;28;20037;-63
2022/08/27 00:16:26;;;;;;;10.00;3.72;;;18.30;99.90;;;;;;5016402;28;20655;-63
2022/08/27 00:18:54;;;;;;;9.35;3.80;;;18.30;99.90;;;;;;5027218;28;20080;-63
2022/08/27 00:21:20;;;;;;;6.15;3.70;;;18.30;99.90;;;;;;5034336;28;20037;-63
2022/08/27 00:23:46;;;;;;;7.25;3.70;;;18.30;99.90;;;;;;5034536;28;20038;-62
2022/08/27 00:26:16;;;;;;;10.52;4.20;;;18.20;99.90;;;;;;5034061;28;20509;-63
2022/08/27 00:28:43;;;;;;;8.52;4.03;;;18.20;99.90;;;;;;5033676;28;20067;-63
2022/08/27 00:31:08;;;;;;;7.93;4.18;;;18.10;99.90;;;;;;5032857;28;20041;-63
2022/08/27 00:33:35;;;;;;;8.45;3.83;;;18.10;99.90;;;;;;5034332;28;20037;-63
2022/08/27 00:36:02;;;;;;;8.40;4.50;;;18.10;99.90;;;;;;5034009;28;20060;-63
2022/08/27 00:38:28;;;;;;;7.70;4.03;;;18.10;99.90;;;;;;5033137;28;20590;-63
2022/08/27 00:40:54;;;;;;;8.57;3.65;;;18.20;99.90;;;;;;5018127;28;20048;-63
2022/08/27 00:43:22;;;;;;;7.13;3.83;;;18.40;99.90;;;;;;5027579;28;20131;-63
2022/08/27 00:45:49;;;;;;;8.13;3.80;;;18.20;99.90;;;;;;5025600;28;20045;-63
2022/08/27 00:48:16;;;;;;;7.43;3.60;;;18.10;99.90;;;;;;5033668;28;20038;-63
2022/08/27 00:50:47;;;;;;;6.68;3.42;;;18.00;99.90;;;;;;5031604;28;20077;-63
2022/08/27 00:53:17;;;;;;;11.50;3.58;;;17.90;99.90;;;;;;5034293;28;20045;-63
2022/08/27 00:55:55;;;;;;;8.50;3.50;;;17.80;99.90;;;;;;5033421;28;20049;-63
2022/08/27 00:58:42;;;;;;;7.32;3.53;;;17.80;99.90;;;;;;5033760;28;20557;-63
2022/08/27 01:01:11;;;;;;;6.60;3.17;;;17.80;99.90;;;;;;5032823;28;20045;-63
2022/08/27 01:03:38;;;;;;;9.23;3.58;;;17.80;99.90;;;;;;5033369;28;20030;-63
2022/08/27 01:06:09;;;;;;;8.18;3.47;;;17.90;99.90;;;;;;5032816;28;20068;-63
2022/08/27 01:08:38;;;;;;;10.07;3.25;;;18.10;99.90;;;;;;5032067;28;20045;-63
2022/08/27 01:11:04;;;;;;;8.65;2.80;;;18.20;99.90;;;;;;5030259;28;20060;-63
2022/08/27 01:13:31;;;;;;;6.20;2.50;;;18.40;99.90;;;;;;5032980;28;20042;-63
2022/08/27 01:15:58;;;;;;;7.63;2.17;;;18.40;99.90;;;;;;5031847;28;20134;-63
2022/08/27 01:18:25;;;;;;;5.93;2.28;;;18.50;99.90;;;;;;5033925;28;20038;-63
2022/08/27 01:21:01;;;;;;;4.72;2.00;;;18.60;99.90;;;;;;5022108;28;20037;-63
2022/08/27 01:23:39;;;;;;;3.42;1.90;;;18.70;99.90;;;;;;5014643;28;20064;-62
2022/08/27 01:26:07;;;;;;;5.30;2.30;;;18.80;99.90;;;;;;5027789;28;20050;-63
2022/08/27 01:28:35;;;;;;;3.45;1.85;;;18.90;99.90;;;;;;5013980;28;20069;-63
2022/08/27 01:31:03;;;;;;;10.13;2.17;;;19.00;99.90;;;;;;5018382;28;20539;-63
2022/08/27 01:33:28;;;;;;;7.30;2.38;;;19.00;99.90;;;;;;5013671;28;20046;-62
2022/08/27 01:35:54;;;;;;;6.82;2.28;;;19.00;99.90;;;;;;5017646;28;20511;-63
2022/08/27 01:38:20;;;;;;;8.80;2.22;;;19.00;99.90;;;;;;5031045;28;20033;-63
2022/08/27 01:40:46;;;;;;;3.60;1.90;;;18.90;99.90;;;;;;5027647;28;20515;-63
2022/08/27 01:43:12;;;;;;;3.05;1.67;;;18.80;99.90;;;;;;5032772;28;20076;-63
2022/08/27 01:45:43;;;;;;;7.78;2.20;;;18.80;99.90;;;;;;5033269;28;20033;-63
2022/08/27 01:48:09;;;;;;;5.63;1.77;;;18.70;99.90;;;;;;5028653;28;20057;-63
2022/08/27 01:50:37;;;;;;;6.45;2.40;;;18.60;99.90;;;;;;5021760;28;20046;-63
2022/08/27 01:53:15;;;;;;;4.15;1.88;;;18.50;99.90;;;;;;5020607;28;20038;-62
2022/08/27 01:55:43;;;;;;;5.60;2.03;;;18.40;99.90;;;;;;5014575;28;20492;-62
2022/08/27 01:58:09;;;;;;;2.80;1.67;;;18.30;99.90;;;;;;5032016;28;20509;-63
2022/08/27 02:00:38;;;;;;;8.52;1.65;;;18.20;99.90;;;;;;5024306;28;20034;-62
2022/08/27 02:03:05;;;;;;;5.43;1.73;;;18.20;99.90;;;;;;5018951;28;20049;-63
2022/08/27 02:05:32;;;;;;;5.53;1.58;;;18.20;99.90;;;;;;5032791;28;20068;-63
2022/08/27 02:07:58;;;;;;;6.55;2.55;;;18.20;99.90;;;;;;5031730;28;20108;-63
2022/08/27 02:10:37;;;;;;;4.82;1.70;;;18.10;99.90;;;;;;5029596;28;20129;-63
2022/08/27 02:13:05;;;;;;;3.35;1.60;;;18.10;99.90;;;;;;5032774;28;20076;-63
2022/08/27 02:15:33;;;;;;;4.53;1.85;;;18.00;99.90;;;;;;5031687;28;20037;-63
2022/08/27 02:17:59;;;;;;;6.05;1.80;;;17.90;99.90;;;;;;5032009;28;20044;-63
2022/08/27 02:20:25;;;;;;;8.70;2.00;;;17.90;99.90;;;;;;5030479;28;20045;-63
2022/08/27 02:22:51;;;;;;;4.90;1.92;;;17.90;99.90;;;;;;5032560;28;20491;-63
2022/08/27 02:25:19;;;;;;;5.45;1.80;;;17.80;99.90;;;;;;5032237;28;20044;-63
2022/08/27 02:27:46;;;;;;;6.07;1.60;;;17.80;99.90;;;;;;5030394;28;20491;-63
2022/08/27 02:30:15;;;;;;;4.97;1.80;;;17.80;99.90;;;;;;5030676;28;20045;-63
2022/08/27 02:32:41;;;;;;;5.40;1.80;;;17.80;99.90;;;;;;5031541;28;20029;-63
2022/08/27 02:35:08;;;;;;;5.32;1.58;;;17.70;99.90;;;;;;5046150;28;20048;-63
2022/08/27 02:37:35;;;;;;;6.18;1.80;;;17.70;99.90;;;;;;5031599;28;20091;-63
2022/08/27 02:40:02;;;;;;;6.53;1.50;;;17.80;99.90;;;;;;5029373;28;20025;-63
2022/08/27 02:42:28;;;;;;;5.78;1.60;;;17.80;99.90;;;;;;5012504;28;20213;-63
2022/08/27 02:44:53;;;;;;;5.88;1.85;;;17.70;99.90;;;;;;5028360;28;20422;-62
2022/08/27 02:47:19;;;;;;;2.70;1.50;;;17.70;99.90;;;;;;5026384;28;20033;-63
2022/08/27 02:49:45;;;;;;;6.50;1.67;;;17.60;99.90;;;;;;5024257;28;20142;-63
2022/08/27 02:52:10;;;;;;;4.63;1.52;;;17.60;99.90;;;;;;5019812;28;20392;-63
2022/08/27 02:54:36;;;;;;;3.95;1.67;;;17.60;99.90;;;;;;5031388;28;20055;-62
2022/08/27 02:57:02;;;;;;;8.98;1.70;;;17.60;99.90;;;;;;5031789;28;20041;-63
2022/08/27 02:59:27;;;;;;;4.05;1.50;;;17.60;99.90;;;;;;5030926;28;20487;-63
2022/08/27 03:01:53;;;;;;;6.68;1.88;;;17.60;99.90;;;;;;5019695;28;20037;-62
2022/08/27 03:04:19;;;;;;;5.68;1.50;;;17.70;99.90;;;;;;5030489;28;20510;-63
2022/08/27 03:06:46;;;;;;;6.88;1.60;;;17.70;99.90;;;;;;5022260;28;20111;-63
2022/08/27 03:09:11;;;;;;;4.20;1.58;;;17.70;99.90;;;;;;5027075;28;20038;-63
2022/08/27 03:11:37;;;;;;;3.38;1.60;;;17.60;99.90;;;;;;5028128;28;20065;-62
2022/08/27 03:14:02;;;;;;;4.78;1.92;;;17.70;99.90;;;;;;5018156;28;20399;-63
2022/08/27 03:16:28;;;;;;;6.13;1.90;;;17.70;99.90;;;;;;5018898;28;20049;-62
2022/08/27 03:18:54;;;;;;;6.30;1.90;;;17.70;99.90;;;;;;5017364;28;20116;-63
2022/08/27 03:21:24;;;;;;;5.85;1.98;;;17.80;99.90;;;;;;5029024;28;20076;-62
2022/08/27 03:23:50;;;;;;;5.18;1.75;;;17.70;99.90;;;;;;5029266;28;20077;-62
2022/08/27 03:26:17;;;;;;;6.43;1.92;;;17.80;99.90;;;;;;5031417;28;20511;-63
2022/08/27 03:28:43;;;;;;;7.03;1.67;;;17.80;99.90;;;;;;5029554;28;20048;-63
2022/08/27 03:31:14;;;;;;;5.88;1.65;;;17.70;99.90;;;;;;5025817;28;20042;-62
2022/08/27 03:33:41;;;;;;;7.15;1.80;;;17.70;99.90;;;;;;5016258;28;20037;-62
2022/08/27 03:36:08;;;;;;;4.55;1.65;;;17.80;99.90;;;;;;5020231;28;20392;-63
2022/08/27 03:38:34;;;;;;;5.60;1.55;;;17.80;99.90;;;;;;5024723;28;20045;-63
2022/08/27 03:41:04;;;;;;;7.90;2.28;;;17.90;99.90;;;;;;5030403;28;20033;-63
2022/08/27 03:43:30;;;;;;;6.57;2.45;;;18.00;99.90;;;;;;5030716;28;20179;-63
2022/08/27 03:45:56;;;;;;;6.13;1.67;;;18.00;99.90;;;;;;5031077;28;20599;-63
2022/08/27 03:48:21;;;;;;;7.30;1.85;;;18.10;99.90;;;;;;5029008;28;20128;-63
2022/08/27 03:50:49;;;;;;;3.70;1.60;;;18.20;99.90;;;;;;5027870;28;20038;-63
2022/08/27 03:53:17;;;;;;;4.85;2.22;;;18.10;99.90;;;;;;5012600;28;20037;-63
2022/08/27 03:55:43;;;;;;;8.18;1.70;;;18.20;99.90;;;;;;5029593;28;20045;-63
2022/08/27 03:58:10;;;;;;;7.03;1.95;;;18.20;99.90;;;;;;5031084;28;20419;-63
2022/08/27 04:00:38;;;;;;;7.85;1.65;;;18.30;99.90;;;;;;5029916;28;20064;-63
2022/08/27 04:03:04;;;;;;;9.43;2.22;;;18.30;99.90;;;;;;5011079;28;20054;-63
2022/08/27 04:05:31;;;;;;;5.03;1.80;;;18.30;99.90;;;;;;5013858;28;20483;-63
2022/08/27 04:07:57;;;;;;;2.90;1.60;;;18.30;99.90;;;;;;5026023;28;20077;-63
2022/08/27 04:10:22;;;;;;;5.32;1.83;;;18.40;99.90;;;;;;5029384;28;20057;-62
2022/08/27 04:12:48;;;;;;;6.50;2.00;;;18.40;99.90;;;;;;5014161;28;20038;-63
2022/08/27 04:15:15;;;;;;;6.90;1.73;;;18.30;99.90;;;;;;5011251;28;20039;-63
2022/08/27 04:17:41;;;;;;;6.18;1.92;;;18.30;99.90;;;;;;5011126;28;20444;-63
2022/08/27 04:20:08;;;;;;;7.65;2.08;;;18.30;99.90;;;;;;5025376;28;20073;-63
2022/08/27 04:22:34;;;;;;;7.32;1.90;;;18.30;99.90;;;;;;5014919;28;20112;-63
2022/08/27 04:25:00;;;;;;;6.78;1.80;;;18.10;99.90;;;;;;5012427;28;20034;-63
2022/08/27 04:27:27;;;;;;;9.05;1.85;;;17.90;99.90;;;;;;5033615;28;20041;-63
2022/08/27 04:29:57;;;;;;;6.38;1.92;;;17.80;99.90;;;;;;5033757;28;20562;-63
2022/08/27 04:32:24;;;;;;;3.92;1.65;;;17.70;99.90;;;;;;5029366;28;20037;-63
2022/08/27 04:34:53;;;;;;;6.65;1.98;;;17.60;99.90;;;;;;5022443;28;20042;-63
2022/08/27 04:37:19;;;;;;;6.53;1.83;;;17.50;99.90;;;;;;5029685;28;20030;-63
2022/08/27 04:39:44;;;;;;;5.25;1.63;;;17.50;99.90;;;;;;5029181;28;20495;-63
2022/08/27 04:42:10;;;;;;;6.60;1.90;;;17.40;99.90;;;;;;5029668;28;20045;-63
2022/08/27 04:44:35;;;;;;;4.90;1.67;;;17.40;99.90;;;;;;5034133;28;20056;-63
2022/08/27 04:47:04;;;;;;;4.07;1.83;;;17.40;99.90;;;;;;5030491;28;20083;-63
2022/08/27 04:49:30;;;;;;;8.90;2.35;;;17.40;99.90;;;;;;5026805;28;20036;-63
2022/08/27 04:51:56;;;;;;;7.25;1.70;;;17.40;99.90;;;;;;5026134;28;20049;-62
2022/08/27 04:54:22;;;;;;;6.82;1.83;;;17.40;99.90;;;;;;5027822;28;20034;-62
2022/08/27 04:56:48;;;;;;;9.45;2.00;;;17.60;99.90;;;;;;5029381;28;20793;-62
2022/08/27 04:59:13;;;;;;;7.43;2.10;;;17.70;99.90;;;;;;5022094;28;20095;-63
2022/08/27 05:01:40;;;;;;;6.10;1.55;;;17.80;99.90;;;;;;5033268;28;20052;-62
2022/08/27 05:04:07;;;;;;;6.60;1.75;;;18.00;99.90;;;;;;5031511;28;20202;-63
2022/08/27 05:06:35;;;;;;;6.20;2.20;;;18.20;99.90;;;;;;5024874;28;20127;-63
2022/08/27 05:09:01;;;;;;;5.28;1.95;;;18.30;99.90;;;;;;5028337;28;20045;-62
2022/08/27 05:11:31;;;;;;;4.53;1.60;;;18.40;99.90;;;;;;5029535;28;20049;-64
2022/08/27 05:13:57;;;;;;;5.75;1.80;;;18.50;99.90;;;;;;5044779;28;20054;-64
2022/08/27 05:16:23;;;;;;;8.98;2.03;;;18.70;99.90;;;;;;5029242;28;20040;-65
2022/08/27 05:18:51;;;;;;;6.18;1.60;;;18.70;99.90;;;;;;5040380;28;20486;-62
2022/08/27 05:21:21;;;;;;;5.80;1.63;;;18.80;99.90;;;;;;5029211;28;21014;-62
2022/08/27 05:23:47;;;;;;;9.75;1.85;;;18.80;99.90;;;;;;5031452;28;20095;-61
2022/08/27 05:26:13;;;;;;;6.22;1.60;;;19.10;99.90;;;;;;5030454;28;20439;-62
2022/08/27 05:28:39;;;;;;;8.38;2.25;;;19.00;99.90;;;;;;5027309;28;20038;-62
2022/08/27 05:31:08;;;;;;;8.10;2.05;;;19.10;99.90;;;;;;5016749;28;20053;-62
2022/08/27 05:33:37;;;;;;;7.10;1.90;;;19.00;99.90;;;;;;5029468;28;20042;-62
2022/08/27 05:36:04;;;;;;;7.63;1.65;;;19.00;99.90;;;;;;5022551;28;20038;-61
2022/08/27 05:38:31;;;;;;;7.25;1.67;;;19.00;99.90;;;;;;5018459;28;20034;-62
2022/08/27 05:41:08;;;;;;;7.70;2.10;;;19.00;99.90;;;;;;5029281;28;20902;-62
2022/08/27 05:43:34;;;;;;;8.10;1.80;;;19.00;99.90;;;;;;5029531;28;20095;-62
2022/08/27 05:46:04;;;;;;;7.38;1.98;;;19.00;99.90;;;;;;5030857;28;20111;-62
2022/08/27 05:48:31;;;;;;;9.50;1.75;;;19.20;99.90;;;;;;5025683;28;20083;-62
2022/08/27 05:50:56;;;;;;;11.13;1.95;;;19.10;99.90;;;;;;5028058;28;20045;-62
2022/08/27 05:53:22;;;;;;;4.85;1.70;;;19.10;99.90;;;;;;5029976;28;20033;-62
2022/08/27 05:55:48;;;;;;;5.38;2.03;;;19.20;99.90;;;;;;5027097;28;20045;-62
2022/08/27 06:01:04;;;;;;;7.32;1.65;;;19.30;99.90;;;;;;5025562;28;20129;-62
2022/08/27 06:03:35;;;;;;;8.00;2.00;;;19.20;99.90;;;;;;5026855;28;20056;-63
2022/08/27 06:06:09;;;;;;;3.67;1.40;;;19.30;99.90;;;;;;5024538;28;20033;-62
2022/08/27 06:08:36;;;;;;;7.43;1.85;;;19.30;99.90;;;;;;5020696;28;20029;-62
2022/08/27 06:11:04;;;;;;;7.05;1.90;;;19.30;99.90;;;;;;5023530;28;20269;-62
2022/08/27 06:13:32;;;;;;;6.70;1.83;;;19.30;99.90;;;;;;5030990;28;20042;-62
2022/08/27 06:16:06;;;;;;;7.03;1.73;;;19.30;99.90;;;;;;5025394;28;20046;-62
2022/08/27 06:18:32;;;;;;;6.60;1.70;;;19.20;99.90;;;;;;5024727;28;20037;-62
2022/08/27 06:20:58;;;;;;;8.50;2.38;;;19.30;99.90;;;;;;5032476;28;20048;-62
2022/08/27 06:23:24;;;;;;;4.75;1.55;;;19.10;99.90;;;;;;5023915;28;20128;-62
2022/08/27 06:25:50;;;;;;;5.15;1.52;;;19.20;99.90;;;;;;5017408;28;20041;-62
2022/08/27 06:28:19;;;;;;;8.23;1.52;;;19.20;99.90;;;;;;5030571;28;20446;-62
2022/08/27 06:30:45;;;;;;;7.95;2.17;;;19.20;99.90;;;;;;5032469;28;20041;-62
2022/08/27 06:33:10;;;;;;;10.13;2.03;;;19.20;99.90;;;;;;5030358;28;20037;-62
2022/08/27 06:35:36;;;;;;;3.80;1.50;;;19.20;99.90;;;;;;5027786;28;20060;-62
2022/08/27 06:38:02;;;;;;;4.50;1.70;;;19.10;99.90;;;;;;5021279;28;20511;-62
2022/08/27 06:40:27;;;;;;;7.43;2.00;;;19.20;99.90;;;;;;5028859;28;20084;-62
2022/08/27 06:42:53;;;;;;;8.30;2.03;;;19.30;99.90;;;;;;5030470;28;20106;-62
2022/08/27 06:45:19;;;;;;;7.30;1.70;;;19.30;99.90;;;;;;5028873;28;20041;-62
2022/08/27 06:47:45;;;;;;;6.20;1.80;;;19.50;99.90;;;;;;5030529;28;20081;-62
2022/08/27 06:50:10;;;;;;;5.72;1.70;;;19.60;99.90;;;;;;5029411;28;20063;-62
2022/08/27 06:52:36;;;;;;;9.85;1.50;;;19.70;99.90;;;;;;5029901;28;20048;-62
2022/08/27 06:55:02;;;;;;;5.18;1.50;;;19.80;99.90;;;;;;5031197;28;20181;-62
2022/08/27 06:57:27;;;;;;;5.25;1.50;;;19.80;99.90;;;;;;5012648;28;20049;-62
2022/08/27 06:59:53;;;;;;;4.07;1.60;;;19.90;99.90;;;;;;5028843;28;20041;-62
2022/08/27 07:02:18;;;;;;;6.82;1.50;;;20.00;99.90;;;;;;5031035;28;20052;-62
2022/08/27 07:04:44;;;;;;;13.00;2.60;;;20.00;99.90;;;;;;5031089;28;20052;-62
2022/08/27 07:07:12;;;;;;;4.35;1.58;;;20.10;99.90;;;;;;5025306;28;20043;-62
2022/08/27 07:09:38;;;;;;;7.35;1.70;;;20.10;99.90;;;;;;5025665;28;20135;-62
2022/08/27 07:12:04;;;;;;;6.30;1.63;;;20.10;9.50;;;;;;5022136;28;20495;-62
2022/08/27 07:14:30;;;;;;;24.50;1.60;;;20.20;23.30;;;;;;5031866;28;20483;-62
2022/08/27 07:16:55;;;;;;;7.57;1.90;;;20.10;99.90;;;;;;5029078;28;20045;-62
2022/08/27 07:19:21;;;;;;;7.05;1.88;;;20.20;99.90;;;;;;5014455;28;20050;-62
2022/08/27 07:21:47;;;;;;;6.00;1.60;;;20.30;1.00;;;;;;5031071;28;20076;-62
2022/08/27 07:24:12;;;;;;;4.75;1.38;;;20.40;37.60;;;;;;5030481;28;20099;-62
2022/08/27 07:26:41;;;;;;;6.00;1.50;;;20.30;99.90;;;;;;5028796;28;20083;-62
2022/08/27 07:29:10;;;;;;;8.90;2.03;;;20.40;1.00;;;;;;5031684;28;20047;-62
2022/08/27 07:31:36;;;;;;;10.60;1.63;;;20.40;99.90;;;;;;5019559;28;20037;-62
2022/08/27 07:34:03;;;;;;;5.43;1.77;;;20.40;99.90;;;;;;5030923;28;20040;-62
2022/08/27 07:36:28;;;;;;;7.35;1.48;;;20.60;99.90;;;;;;5021910;28;20383;-62
2022/08/27 07:38:54;;;;;;;7.18;1.80;;;20.70;99.90;;;;;;5020044;28;20120;-62
2022/08/27 07:41:19;;;;;;;5.50;1.40;;;20.70;99.90;;;;;;5029469;28;20438;-62
2022/08/27 07:46:30;;;;;;;4.32;1.63;;;20.90;99.90;;;;;;5024316;28;20180;-62
2022/08/27 07:48:56;;;;;;;4.82;1.30;;;20.90;74.00;;;;;;5011848;28;20519;-62
2022/08/27 07:51:24;;;;;;;4.45;1.48;;;20.90;1.00;;;;;;5010183;28;20042;-62
2022/08/27 07:53:50;;;;;;;3.38;1.42;;;20.80;1.00;;;;;;5014020;28;20120;-62
2022/08/27 07:56:17;;;;;;;3.05;1.17;;;20.60;99.90;;;;;;5024180;28;20920;-62
2022/08/27 07:58:43;;;;;;;8.18;2.10;;;20.30;99.90;;;;;;5021856;28;20037;-62
2022/08/27 08:01:09;;;;;;;7.60;2.13;;;20.50;86.50;;;;;;5016192;28;20475;-62
2022/08/27 08:03:35;;;;;;;11.75;2.20;;;20.80;1.00;;;;;;5034859;28;20041;-62
2022/08/27 08:06:06;;;;;;;4.80;1.55;;;20.90;1.00;;;;;;5034005;28;20404;-62
2022/08/27 08:08:36;;;;;;;3.50;1.40;;;21.10;1.00;;;;;;5015711;28;20042;-62
2022/08/27 08:11:02;;;;;;;9.70;1.92;;;21.20;99.90;;;;;;5025632;28;20061;-62
2022/08/27 08:13:29;;;;;;;4.90;1.50;;;21.00;99.90;;;;;;5031159;28;20041;-62
2022/08/27 08:15:57;;;;;;;5.45;1.67;;;20.80;99.90;;;;;;5033883;28;20045;-62
2022/08/27 08:18:22;;;;;;;7.35;1.45;;;20.70;1.00;;;;;;5033746;28;20072;-62
2022/08/27 08:20:48;;;;;;;13.65;2.22;;;20.90;99.90;;;;;;5024770;28;20042;-62
2022/08/27 08:23:14;;;;;;;4.85;1.00;;;21.10;99.90;;;;;;5028226;28;20037;-62
2022/08/27 08:25:40;;;;;;;3.58;1.40;;;21.00;99.90;;;;;;5029146;28;20038;-62
2022/08/27 08:28:06;;;;;;;6.35;1.60;;;20.80;1.00;;;;;;5033228;28;20120;-63
2022/08/27 08:30:32;;;;;;;5.15;1.40;;;21.00;99.90;;;;;;5032238;28;20483;-62
2022/08/27 08:32:57;;;;;;;2.72;0.95;;;21.00;1.00;;;;;;5016596;28;20179;-62
2022/08/27 08:35:23;;;;;;;2.80;1.00;;;21.30;1.00;;;;;;5017755;28;20057;-62
2022/08/27 08:37:49;;;;;;;5.63;1.40;;;21.30;99.90;;;;;;5020362;28;20037;-62
2022/08/27 08:40:29;;;;;;;5.45;1.50;;;21.10;95.50;;;;;;5021189;28;20060;-62
2022/08/27 08:42:56;;;;;;;4.07;1.42;;;21.00;99.90;;;;;;5014967;28;20050;-62
2022/08/27 08:45:26;;;;;;;6.32;1.42;;;21.00;99.90;;;;;;5015466;28;20056;-62
2022/08/27 08:48:10;;;;;;;8.20;1.80;;;21.10;99.90;;;;;;5028877;28;20121;-62
2022/08/27 08:51:01;;;;;;;5.00;1.67;;;21.30;99.90;;;;;;5033727;28;20041;-62
2022/08/27 08:53:53;;;;;;;4.68;1.00;;;21.20;99.90;;;;;;5034400;28;20556;-62
2022/08/27 08:56:34;;;;;;;4.55;1.30;;;21.00;91.50;;;;;;5022000;28;20042;-62
2022/08/27 08:59:13;;;;;;;11.05;1.42;;;20.90;99.90;;;;;;5027062;28;20045;-64
2022/08/27 09:01:39;;;;;;;6.78;1.33;;;20.70;99.90;;;;;;5033500;28;20441;-62
2022/08/27 09:04:09;;;;;;;6.90;1.42;;;20.70;79.20;;;;;;5034077;28;20049;-62
2022/08/27 09:06:58;;;;;;;6.75;1.38;;;20.80;99.90;;;;;;5028434;28;20075;-62
2022/08/27 09:10:09;;;;;;;6.40;1.50;;;20.90;99.90;;;;;;5036120;28;20128;-62
2022/08/27 09:12:34;;;;;;;11.63;1.80;;;20.70;27.10;;;;;;5022223;28;20057;-62
2022/08/27 09:15:12;;;;;;;5.97;1.27;;;20.80;1.00;;;;;;5033499;28;20434;-62
2022/08/27 09:17:40;;;;;;;6.63;1.05;;;21.10;1.00;;;;;;5028367;28;20513;-62
2022/08/27 09:20:07;;;;;;;5.18;1.30;;;21.40;99.90;;;;;;5025694;28;20052;-62
2022/08/27 09:23:10;;;;;;;4.15;1.35;;;21.60;61.90;;;;;;5014169;28;20034;-62
2022/08/27 09:25:38;;;;;;;8.77;1.35;;;21.50;99.90;;;;;;5019223;28;20079;-62
2022/08/27 09:29:14;;;;;;;4.20;1.50;;;21.40;99.90;;;;;;5032039;28;20033;-62
2022/08/27 09:31:03;;;;;;;5.78;1.40;;;21.80;99.90;;;;;;5025755;28;20046;-62
2022/08/27 09:33:29;;;;;;;4.82;1.40;;;21.90;99.90;;;;;;5017672;28;20116;-62
2022/08/27 09:35:59;;;;;;;5.95;1.30;;;22.00;96.50;;;;;;5031582;28;20120;-62
2022/08/27 09:38:31;;;;;;;7.97;1.50;;;21.70;96.50;;;;;;5031851;28;20041;-62
2022/08/27 09:41:01;;;;;;;10.98;1.70;;;21.50;96.60;;;;;;5025623;28;20037;-62
2022/08/27 09:43:29;;;;;;;7.30;1.35;;;21.20;99.90;;;;;;5013705;28;20034;-63
2022/08/27 09:46:21;;;;;;;8.30;1.77;;;21.40;99.90;;;;;;5033033;28;20460;-62
2022/08/27 09:48:47;;;;;;;4.75;1.60;;;21.70;99.90;;;;;;5031270;28;20037;-63
2022/08/27 09:51:17;;;;;;;5.55;1.30;;;21.90;1.00;;;;;;5033023;28;20037;-62
2022/08/27 09:53:49;;;;;;;6.97;1.45;;;21.80;1.00;;;;;;5033132;28;20046;-62
2022/08/27 09:56:32;;;;;;;7.80;1.70;;;21.80;1.00;;;;;;5031953;28;20033;-62
2022/08/27 09:59:11;;;;;;;6.00;1.48;;;21.70;1.00;;;;;;5015322;28;20068;-62
2022/08/27 10:02:02;;;;;;;5.10;1.60;;;21.90;99.90;;;;;;5013548;28;20042;-62
2022/08/27 10:04:43;;;;;;;5.28;1.48;;;21.90;19.10;;;;;;5018727;28;20050;-62
2022/08/27 10:07:34;;;;;;;7.63;1.40;;;22.00;6.80;;;;;;5029780;28;20116;-62
2022/08/27 10:10:04;;;;;;;4.68;1.38;;;22.10;1.00;;;;;;5032780;28;20104;-63
2022/08/27 10:12:48;;;;;;;6.75;1.40;;;21.80;1.00;;;;;;5015825;28;20049;-62
2022/08/27 10:15:14;;;;;;;6.13;1.33;;;21.60;99.90;;;;;;5028842;28;20037;-62
2022/08/27 10:17:58;;;;;;;5.45;1.38;;;21.60;99.90;;;;;;5025211;28;20095;-62
2022/08/27 10:20:42;;;;;;;3.38;1.10;;;21.70;99.90;;;;;;5023441;28;20033;-62
2022/08/27 10:23:36;;;;;;;3.63;1.00;;;21.80;99.90;;;;;;5032368;28;20172;-63
2022/08/27 10:26:27;;;;;;;6.90;1.73;;;21.80;99.90;;;;;;5017461;28;20038;-62
2022/08/27 10:29:35;;;;;;;6.18;1.33;;;21.70;22.80;;;;;;5014584;28;20434;-62
2022/08/27 10:32:27;;;;;;;3.80;1.20;;;21.70;1.00;;;;;;5016116;28;20484;-62
2022/08/27 10:35:11;;;;;;;4.93;1.23;;;21.90;1.00;;;;;;5023047;28;20487;-62
2022/08/27 10:38:03;;;;;;;6.53;1.27;;;21.90;1.00;;;;;;5024562;28;20034;-63
2022/08/27 10:40:41;;;;;;;7.20;1.55;;;21.90;1.00;;;;;;5020834;28;20060;-62
2022/08/27 10:43:26;;;;;;;7.20;1.15;;;21.70;1.00;;;;;;5013959;28;20049;-62
2022/08/27 10:46:35;;;;;;;7.38;1.40;;;21.70;36.90;;;;;;5017593;28;20052;-62
2022/08/27 10:49:20;;;;;;;6.85;1.63;;;22.10;27.60;;;;;;5016290;28;20034;-62
2022/08/27 10:51:55;;;;;;;7.38;1.52;;;21.90;1.00;;;;;;5016777;28;20107;-62
2022/08/27 10:54:38;;;;;;;5.45;1.42;;;21.80;1.00;;;;;;5030095;28;20037;-62
2022/08/27 10:57:13;;;;;;;8.48;1.55;;;21.80;1.00;;;;;;5029688;28;20473;-62
2022/08/27 10:59:57;;;;;;;6.82;1.48;;;22.10;1.00;;;;;;5011371;28;20118;-62
2022/08/27 11:02:56;;;;;;;3.90;1.15;;;22.20;99.90;;;;;;5011278;28;20050;-62
2022/08/27 11:05:35;;;;;;;4.63;1.10;;;22.10;99.90;;;;;;5026426;28;20053;-62
2022/08/27 11:08:32;;;;;;;12.23;2.85;;;21.70;99.90;;;;;;5022796;28;20053;-62
2022/08/27 11:11:04;;;;;;;8.02;1.48;;;21.50;99.90;;;;;;5023654;28;20062;-62
2022/08/27 11:13:37;;;;;;;4.38;1.40;;;21.50;99.90;;;;;;5012220;28;20070;-62
2022/08/27 11:16:16;;;;;;;8.82;1.20;;;21.50;99.90;;;;;;5027039;28;20041;-62
2022/08/27 11:18:50;;;;;;;7.53;1.30;;;21.60;99.90;;;;;;5024493;28;20129;-62
2022/08/27 11:21:43;;;;;;;8.35;1.60;;;21.70;99.90;;;;;;5029094;28;20345;-62
2022/08/27 11:24:22;;;;;;;6.70;1.45;;;21.60;99.90;;;;;;5027293;28;20517;-62
2022/08/27 11:26:53;;;;;;;3.75;1.13;;;21.40;99.90;;;;;;5028736;28;20041;-62
2022/08/27 11:29:44;;;;;;;5.43;1.10;;;21.40;99.90;;;;;;5014803;28;20069;-63
2022/08/27 11:32:26;;;;;;;4.28;1.17;;;21.50;99.90;;;;;;5031359;28;20491;-62
2022/08/27 11:35:17;;;;;;;5.25;1.23;;;21.60;99.90;;;;;;5030536;28;20052;-62
2022/08/27 11:38:11;;;;;;;7.15;1.50;;;21.70;73.30;;;;;;5011355;28;20056;-62
2022/08/27 11:40:49;;;;;;;9.00;1.60;;;21.70;99.90;;;;;;5027893;28;20103;-62
2022/08/27 11:43:20;;;;;;;5.30;1.52;;;21.70;36.80;;;;;;5027129;28;20124;-62
2022/08/27 11:45:58;;;;;;;7.10;1.55;;;21.70;55.70;;;;;;5029307;28;20119;-62
2022/08/27 11:48:38;;;;;;;8.23;1.63;;;21.70;59.40;;;;;;5029772;28;20061;-62
2022/08/27 11:51:11;;;;;;;5.78;1.90;;;21.60;5.80;;;;;;5030589;28;20041;-62
2022/08/27 11:53:53;;;;;;;6.15;1.63;;;21.70;49.40;;;;;;5030926;28;20052;-62
2022/08/27 11:56:35;;;;;;;7.88;1.45;;;21.70;6.60;;;;;;5030058;28;20122;-62
2022/08/27 11:59:31;;;;;;;2.70;1.17;;;21.70;1.00;;;;;;5031554;28;20069;-62
2022/08/27 12:02:11;;;;;;;4.72;1.27;;;21.70;3.00;;;;;;5029967;28;20503;-62
2022/08/27 12:04:40;;;;;;;8.55;1.60;;;21.60;1.00;;;;;;5031393;28;20410;-62
2022/08/27 12:07:15;;;;;;;6.78;2.00;;;21.70;1.00;;;;;;5028524;28;20049;-62
2022/08/27 12:09:52;;;;;;;7.82;1.85;;;21.70;1.00;;;;;;5028919;28;20064;-62
2022/08/27 12:12:28;;;;;;;4.72;1.88;;;21.70;28.20;;;;;;5012462;28;20061;-62
2022/08/27 12:15:06;;;;;;;6.10;1.88;;;21.60;60.50;;;;;;5013702;28;20041;-62
2022/08/27 12:17:38;;;;;;;5.57;2.10;;;21.60;66.10;;;;;;5029292;28;20033;-62
2022/08/27 12:20:30;;;;;;;7.15;2.22;;;21.70;99.90;;;;;;5029573;28;20069;-62
2022/08/27 12:26:29;;;;;;;5.85;2.15;;;21.60;99.90;;;;;;5016832;28;20069;-62
2022/08/27 12:29:19;;;;;;;7.15;2.65;;;21.40;80.40;;;;;;5029730;28;20048;-62
2022/08/27 12:31:47;;;;;;;6.75;2.30;;;21.30;35.10;;;;;;5027379;28;20111;-62
2022/08/27 12:34:23;;;;;;;7.28;2.22;;;21.30;99.90;;;;;;5031128;28;20037;-62
2022/08/27 12:36:51;;;;;;;4.88;1.80;;;21.40;99.90;;;;;;5024533;28;20041;-62
2022/08/27 12:39:20;;;;;;;9.80;2.45;;;21.40;74.50;;;;;;5024893;28;20065;-62
2022/08/27 12:41:48;;;;;;;11.80;2.67;;;21.30;84.80;;;;;;5028021;28;20139;-62
2022/08/27 12:44:24;;;;;;;10.38;2.08;;;21.30;99.90;;;;;;5028403;28;20514;-62
2022/08/27 12:47:03;;;;;;;6.18;2.40;;;21.20;99.90;;;;;;5023038;28;20038;-62
2022/08/27 12:49:52;;;;;;;7.63;2.53;;;21.10;92.50;;;;;;5017045;28;20060;-62
2022/08/27 12:52:27;;;;;;;6.95;2.40;;;21.20;5.40;;;;;;5033099;28;20430;-62
2022/08/27 12:55:03;;;;;;;7.47;2.40;;;21.30;32.70;;;;;;5033359;28;20049;-62
2022/08/27 12:58:02;;;;;;;6.97;2.53;;;21.20;1.00;;;;;;5025889;28;20033;-62
2022/08/27 13:00:34;;;;;;;4.32;1.88;;;21.30;1.00;;;;;;5017307;28;20053;-62
2022/08/27 13:03:21;;;;;;;8.95;2.50;;;21.20;1.00;;;;;;5014785;28;20135;-62
2022/08/27 13:05:48;;;;;;;5.38;2.17;;;21.20;99.90;;;;;;5030787;28;20048;-62
2022/08/27 13:08:27;;;;;;;6.47;2.13;;;21.30;1.00;;;;;;5032322;28;20068;-62
2022/08/27 13:10:53;;;;;;;8.88;2.10;;;21.30;1.00;;;;;;5032840;28;20049;-62
2022/08/27 13:13:21;;;;;;;8.07;2.05;;;21.20;1.00;;;;;;5033753;28;20041;-62
2022/08/27 13:15:54;;;;;;;4.47;1.90;;;21.30;1.00;;;;;;5032147;28;20040;-62
2022/08/27 13:18:21;;;;;;;4.70;1.73;;;21.30;8.70;;;;;;5044877;28;20041;-62